sensor_id;sensor_type;location;lat;lon;timestamp;P1;durP1;ratioP1;P2;durP2;ratioP2
20721;SDS011;10522;52.198;9.890;2023-01-09T00:02:21;2.43;;;1.40;;
20721;SDS011;10522;52.198;9.890;2023-01-09T00:04:46;1.60;;;1.33;;
20721;SDS011;10522;52.198;9.890;2023-01-09T00:07:12;1.33;;;1.23;;
20721;SDS011;10522;52.198;9.890;2023-01-09T00:09:37;1.17;;;1.07;;
20721;SDS011;10522;52.198;9.890;2023-01-09T00:12:03;1.70;;;1.50;;
20721;SDS011;10522;52.198;9.890;2023-01-09T00:14:29;1.40;;;1.30;;
20721;SDS011;10522;52.198;9.890;2023-01-09T00:16:55;1.77;;;1.23;;
20721;SDS011;10522;52.198;9.890;2023-01-09T00:19:21;1.60;;;1.20;;
20721;SDS011;10522;52.198;9.890;2023-01-09T00:21:46;2.30;;;1.20;;
20721;SDS011;10522;52.198;9.890;2023-01-09T00:24:12;4.83;;;1.10;;
20721;SDS011;10522;52.198;9.890;2023-01-09T00:26:38;2.73;;;1.30;;
20721;SDS011;10522;52.198;9.890;2023-01-09T00:29:04;2.80;;;1.40;;
20721;SDS011;10522;52.198;9.890;2023-01-09T00:31:29;1.43;;;1.00;;
20721;SDS011;10522;52.198;9.890;2023-01-09T00:34:02;4.17;;;1.43;;
20721;SDS011;10522;52.198;9.890;2023-01-09T00:36:30;1.70;;;1.33;;
20721;SDS011;10522;52.198;9.890;2023-01-09T00:38:56;2.50;;;1.10;;
20721;SDS011;10522;52.198;9.890;2023-01-09T00:41:23;1.73;;;1.10;;
20721;SDS011;10522;52.198;9.890;2023-01-09T00:43:54;2.40;;;1.17;;
20721;SDS011;10522;52.198;9.890;2023-01-09T00:46:24;1.33;;;0.93;;
20721;SDS011;10522;52.198;9.890;2023-01-09T00:48:55;1.50;;;0.97;;
20721;SDS011;10522;52.198;9.890;2023-01-09T00:51:20;1.07;;;0.97;;
20721;SDS011;10522;52.198;9.890;2023-01-09T00:53:47;1.87;;;1.10;;
20721;SDS011;10522;52.198;9.890;2023-01-09T00:56:14;1.83;;;1.10;;
20721;SDS011;10522;52.198;9.890;2023-01-09T00:58:42;5.73;;;1.23;;
20721;SDS011;10522;52.198;9.890;2023-01-09T01:01:08;1.20;;;1.10;;
20721;SDS011;10522;52.198;9.890;2023-01-09T01:03:34;1.97;;;1.17;;
20721;SDS011;10522;52.198;9.890;2023-01-09T01:05:59;1.13;;;1.00;;
20721;SDS011;10522;52.198;9.890;2023-01-09T01:08:44;1.67;;;1.10;;
20721;SDS011;10522;52.198;9.890;2023-01-09T01:11:10;1.27;;;1.10;;
20721;SDS011;10522;52.198;9.890;2023-01-09T01:13:37;1.13;;;1.03;;
20721;SDS011;10522;52.198;9.890;2023-01-09T01:16:04;1.10;;;1.00;;
20721;SDS011;10522;52.198;9.890;2023-01-09T01:18:32;1.70;;;0.80;;
20721;SDS011;10522;52.198;9.890;2023-01-09T01:20:58;7.33;;;1.00;;
20721;SDS011;10522;52.198;9.890;2023-01-09T01:23:23;2.87;;;1.20;;
20721;SDS011;10522;52.198;9.890;2023-01-09T01:25:49;1.23;;;1.00;;
20721;SDS011;10522;52.198;9.890;2023-01-09T01:28:15;1.10;;;1.00;;
20721;SDS011;10522;52.198;9.890;2023-01-09T01:30:41;1.10;;;1.00;;
20721;SDS011;10522;52.198;9.890;2023-01-09T01:33:07;1.03;;;0.90;;
20721;SDS011;10522;52.198;9.890;2023-01-09T01:35:33;4.03;;;1.23;;
20721;SDS011;10522;52.198;9.890;2023-01-09T01:37:59;1.87;;;1.10;;
20721;SDS011;10522;52.198;9.890;2023-01-09T01:40:25;1.50;;;1.07;;
20721;SDS011;10522;52.198;9.890;2023-01-09T01:42:52;2.13;;;1.20;;
20721;SDS011;10522;52.198;9.890;2023-01-09T01:45:22;2.57;;;1.37;;
20721;SDS011;10522;52.198;9.890;2023-01-09T01:50:36;2.40;;;1.47;;
20721;SDS011;10522;52.198;9.890;2023-01-09T01:53:15;1.17;;;1.07;;
20721;SDS011;10522;52.198;9.890;2023-01-09T01:55:52;2.70;;;1.20;;
20721;SDS011;10522;52.198;9.890;2023-01-09T01:58:25;1.67;;;1.17;;
20721;SDS011;10522;52.198;9.890;2023-01-09T02:00:52;4.07;;;1.30;;
20721;SDS011;10522;52.198;9.890;2023-01-09T02:03:18;1.43;;;1.30;;
20721;SDS011;10522;52.198;9.890;2023-01-09T02:05:49;1.50;;;1.40;;
20721;SDS011;10522;52.198;9.890;2023-01-09T02:08:15;1.30;;;1.00;;
20721;SDS011;10522;52.198;9.890;2023-01-09T02:10:41;3.87;;;1.70;;
20721;SDS011;10522;52.198;9.890;2023-01-09T02:13:08;2.70;;;1.50;;
20721;SDS011;10522;52.198;9.890;2023-01-09T02:18:23;1.30;;;1.20;;
20721;SDS011;10522;52.198;9.890;2023-01-09T02:20:56;1.53;;;1.17;;
20721;SDS011;10522;52.198;9.890;2023-01-09T02:23:41;2.23;;;1.27;;
20721;SDS011;10522;52.198;9.890;2023-01-09T02:26:22;2.57;;;1.30;;
20721;SDS011;10522;52.198;9.890;2023-01-09T02:32:23;1.40;;;1.30;;
20721;SDS011;10522;52.198;9.890;2023-01-09T02:35:01;5.37;;;1.60;;
20721;SDS011;10522;52.198;9.890;2023-01-09T02:37:47;2.53;;;1.33;;
20721;SDS011;10522;52.198;9.890;2023-01-09T02:43:23;1.53;;;1.23;;
20721;SDS011;10522;52.198;9.890;2023-01-09T02:45:50;1.57;;;1.40;;
20721;SDS011;10522;52.198;9.890;2023-01-09T02:48:16;1.37;;;1.17;;
20721;SDS011;10522;52.198;9.890;2023-01-09T02:58:58;1.97;;;1.30;;
20721;SDS011;10522;52.198;9.890;2023-01-09T03:06:59;1.90;;;1.53;;
20721;SDS011;10522;52.198;9.890;2023-01-09T03:09:32;1.80;;;1.40;;
20721;SDS011;10522;52.198;9.890;2023-01-09T03:12:03;2.53;;;1.67;;
20721;SDS011;10522;52.198;9.890;2023-01-09T03:14:37;3.20;;;1.63;;
20721;SDS011;10522;52.198;9.890;2023-01-09T03:17:06;2.90;;;1.97;;
20721;SDS011;10522;52.198;9.890;2023-01-09T03:19:37;2.00;;;1.50;;
20721;SDS011;10522;52.198;9.890;2023-01-09T03:22:05;2.07;;;1.57;;
20721;SDS011;10522;52.198;9.890;2023-01-09T03:24:31;2.27;;;1.60;;
20721;SDS011;10522;52.198;9.890;2023-01-09T03:26:57;2.40;;;1.83;;
20721;SDS011;10522;52.198;9.890;2023-01-09T03:29:23;2.03;;;1.50;;
20721;SDS011;10522;52.198;9.890;2023-01-09T03:31:49;2.20;;;1.60;;
20721;SDS011;10522;52.198;9.890;2023-01-09T03:34:14;2.30;;;1.60;;
20721;SDS011;10522;52.198;9.890;2023-01-09T03:36:40;2.00;;;1.80;;
20721;SDS011;10522;52.198;9.890;2023-01-09T03:39:06;1.83;;;1.57;;
20721;SDS011;10522;52.198;9.890;2023-01-09T03:41:31;3.67;;;1.70;;
20721;SDS011;10522;52.198;9.890;2023-01-09T03:43:57;3.97;;;1.90;;
20721;SDS011;10522;52.198;9.890;2023-01-09T03:46:22;4.00;;;2.37;;
20721;SDS011;10522;52.198;9.890;2023-01-09T03:48:48;4.13;;;2.10;;
20721;SDS011;10522;52.198;9.890;2023-01-09T03:51:13;1.90;;;1.77;;
20721;SDS011;10522;52.198;9.890;2023-01-09T03:53:40;3.33;;;1.87;;
20721;SDS011;10522;52.198;9.890;2023-01-09T03:56:06;2.27;;;1.80;;
20721;SDS011;10522;52.198;9.890;2023-01-09T03:58:31;5.70;;;1.83;;
20721;SDS011;10522;52.198;9.890;2023-01-09T04:01:01;3.07;;;2.13;;
20721;SDS011;10522;52.198;9.890;2023-01-09T04:03:28;2.30;;;1.73;;
20721;SDS011;10522;52.198;9.890;2023-01-09T04:05:54;3.83;;;1.90;;
20721;SDS011;10522;52.198;9.890;2023-01-09T04:08:20;5.30;;;1.97;;
20721;SDS011;10522;52.198;9.890;2023-01-09T04:10:46;2.80;;;2.03;;
20721;SDS011;10522;52.198;9.890;2023-01-09T04:13:12;3.33;;;1.60;;
20721;SDS011;10522;52.198;9.890;2023-01-09T04:15:38;3.07;;;1.73;;
20721;SDS011;10522;52.198;9.890;2023-01-09T04:18:04;2.80;;;1.73;;
20721;SDS011;10522;52.198;9.890;2023-01-09T04:20:30;2.57;;;1.70;;
20721;SDS011;10522;52.198;9.890;2023-01-09T04:22:56;1.23;;;1.13;;
20721;SDS011;10522;52.198;9.890;2023-01-09T04:25:23;1.93;;;1.40;;
20721;SDS011;10522;52.198;9.890;2023-01-09T04:27:49;1.60;;;1.50;;
20721;SDS011;10522;52.198;9.890;2023-01-09T04:30:15;2.37;;;1.20;;
20721;SDS011;10522;52.198;9.890;2023-01-09T04:32:40;2.33;;;1.47;;
20721;SDS011;10522;52.198;9.890;2023-01-09T04:35:06;1.33;;;1.23;;
20721;SDS011;10522;52.198;9.890;2023-01-09T04:37:32;1.87;;;1.30;;
20721;SDS011;10522;52.198;9.890;2023-01-09T04:40:00;1.70;;;1.60;;
20721;SDS011;10522;52.198;9.890;2023-01-09T04:42:30;1.13;;;1.10;;
20721;SDS011;10522;52.198;9.890;2023-01-09T04:44:55;1.73;;;1.43;;
20721;SDS011;10522;52.198;9.890;2023-01-09T04:47:21;2.00;;;1.47;;
20721;SDS011;10522;52.198;9.890;2023-01-09T04:49:48;2.57;;;1.23;;
20721;SDS011;10522;52.198;9.890;2023-01-09T04:52:13;2.70;;;1.33;;
20721;SDS011;10522;52.198;9.890;2023-01-09T04:54:39;1.40;;;1.30;;
20721;SDS011;10522;52.198;9.890;2023-01-09T04:57:04;5.13;;;1.50;;
20721;SDS011;10522;52.198;9.890;2023-01-09T04:59:30;1.37;;;1.27;;
20721;SDS011;10522;52.198;9.890;2023-01-09T05:01:56;1.50;;;1.40;;
20721;SDS011;10522;52.198;9.890;2023-01-09T05:04:22;2.13;;;1.37;;
20721;SDS011;10522;52.198;9.890;2023-01-09T05:06:48;1.07;;;0.97;;
20721;SDS011;10522;52.198;9.890;2023-01-09T05:09:14;0.87;;;0.77;;
20721;SDS011;10522;52.198;9.890;2023-01-09T05:11:39;0.70;;;0.70;;
20721;SDS011;10522;52.198;9.890;2023-01-09T05:14:05;0.90;;;0.70;;
20721;SDS011;10522;52.198;9.890;2023-01-09T05:16:31;0.63;;;0.63;;
20721;SDS011;10522;52.198;9.890;2023-01-09T05:18:57;3.90;;;0.70;;
20721;SDS011;10522;52.198;9.890;2023-01-09T05:21:24;0.90;;;0.60;;
20721;SDS011;10522;52.198;9.890;2023-01-09T05:23:50;1.17;;;0.80;;
20721;SDS011;10522;52.198;9.890;2023-01-09T05:26:16;0.50;;;0.50;;
20721;SDS011;10522;52.198;9.890;2023-01-09T05:28:43;0.50;;;0.50;;
20721;SDS011;10522;52.198;9.890;2023-01-09T05:31:08;0.40;;;0.40;;
20721;SDS011;10522;52.198;9.890;2023-01-09T05:33:34;0.90;;;0.60;;
20721;SDS011;10522;52.198;9.890;2023-01-09T05:36:00;0.67;;;0.60;;
20721;SDS011;10522;52.198;9.890;2023-01-09T05:38:25;1.00;;;0.80;;
20721;SDS011;10522;52.198;9.890;2023-01-09T05:40:51;0.83;;;0.77;;
20721;SDS011;10522;52.198;9.890;2023-01-09T05:43:17;1.33;;;0.90;;
20721;SDS011;10522;52.198;9.890;2023-01-09T05:45:42;0.97;;;0.90;;
20721;SDS011;10522;52.198;9.890;2023-01-09T05:48:08;1.47;;;1.00;;
20721;SDS011;10522;52.198;9.890;2023-01-09T05:50:33;1.50;;;1.40;;
20721;SDS011;10522;52.198;9.890;2023-01-09T05:52:59;1.47;;;1.37;;
20721;SDS011;10522;52.198;9.890;2023-01-09T05:55:25;1.43;;;1.00;;
20721;SDS011;10522;52.198;9.890;2023-01-09T05:57:50;1.77;;;1.60;;
20721;SDS011;10522;52.198;9.890;2023-01-09T06:00:16;1.77;;;1.67;;
20721;SDS011;10522;52.198;9.890;2023-01-09T06:02:42;4.40;;;2.47;;
20721;SDS011;10522;52.198;9.890;2023-01-09T06:05:08;2.10;;;1.90;;
20721;SDS011;10522;52.198;9.890;2023-01-09T06:07:33;2.90;;;1.67;;
20721;SDS011;10522;52.198;9.890;2023-01-09T06:10:03;1.97;;;1.80;;
20721;SDS011;10522;52.198;9.890;2023-01-09T06:12:29;4.63;;;2.40;;
20721;SDS011;10522;52.198;9.890;2023-01-09T06:14:54;3.83;;;2.80;;
20721;SDS011;10522;52.198;9.890;2023-01-09T06:17:20;3.47;;;2.70;;
20721;SDS011;10522;52.198;9.890;2023-01-09T06:19:45;7.13;;;4.03;;
20721;SDS011;10522;52.198;9.890;2023-01-09T06:22:11;3.10;;;2.57;;
20721;SDS011;10522;52.198;9.890;2023-01-09T06:24:36;7.00;;;3.63;;
20721;SDS011;10522;52.198;9.890;2023-01-09T06:27:02;4.50;;;2.97;;
20721;SDS011;10522;52.198;9.890;2023-01-09T06:29:27;4.03;;;3.07;;
20721;SDS011;10522;52.198;9.890;2023-01-09T06:31:53;6.97;;;3.10;;
20721;SDS011;10522;52.198;9.890;2023-01-09T06:34:19;4.90;;;3.10;;
20721;SDS011;10522;52.198;9.890;2023-01-09T06:36:45;3.20;;;2.90;;
20721;SDS011;10522;52.198;9.890;2023-01-09T06:39:10;5.43;;;2.80;;
20721;SDS011;10522;52.198;9.890;2023-01-09T06:41:38;6.43;;;3.23;;
20721;SDS011;10522;52.198;9.890;2023-01-09T06:44:03;4.97;;;4.00;;
20721;SDS011;10522;52.198;9.890;2023-01-09T06:46:29;7.73;;;3.37;;
20721;SDS011;10522;52.198;9.890;2023-01-09T06:48:54;7.50;;;4.23;;
20721;SDS011;10522;52.198;9.890;2023-01-09T06:51:20;8.27;;;4.27;;
20721;SDS011;10522;52.198;9.890;2023-01-09T06:53:45;5.50;;;3.87;;
20721;SDS011;10522;52.198;9.890;2023-01-09T06:56:11;8.07;;;4.47;;
20721;SDS011;10522;52.198;9.890;2023-01-09T06:58:36;7.00;;;3.60;;
20721;SDS011;10522;52.198;9.890;2023-01-09T07:01:02;4.60;;;3.17;;
20721;SDS011;10522;52.198;9.890;2023-01-09T07:03:28;4.07;;;2.87;;
20721;SDS011;10522;52.198;9.890;2023-01-09T07:05:53;4.40;;;3.17;;
20721;SDS011;10522;52.198;9.890;2023-01-09T07:08:19;6.73;;;3.00;;
20721;SDS011;10522;52.198;9.890;2023-01-09T07:10:45;4.07;;;3.67;;
20721;SDS011;10522;52.198;9.890;2023-01-09T07:13:10;8.67;;;3.97;;
20721;SDS011;10522;52.198;9.890;2023-01-09T07:15:36;6.47;;;3.60;;
20721;SDS011;10522;52.198;9.890;2023-01-09T07:18:02;4.40;;;3.30;;
20721;SDS011;10522;52.198;9.890;2023-01-09T07:20:28;7.90;;;4.03;;
20721;SDS011;10522;52.198;9.890;2023-01-09T07:22:53;5.67;;;3.83;;
20721;SDS011;10522;52.198;9.890;2023-01-09T07:25:19;8.60;;;4.97;;
20721;SDS011;10522;52.198;9.890;2023-01-09T07:27:45;10.67;;;5.80;;
20721;SDS011;10522;52.198;9.890;2023-01-09T07:30:11;10.47;;;6.37;;
20721;SDS011;10522;52.198;9.890;2023-01-09T07:32:37;16.37;;;7.33;;
20721;SDS011;10522;52.198;9.890;2023-01-09T07:35:04;14.60;;;6.23;;
20721;SDS011;10522;52.198;9.890;2023-01-09T07:37:34;10.70;;;5.87;;
20721;SDS011;10522;52.198;9.890;2023-01-09T07:39:59;7.20;;;5.43;;
20721;SDS011;10522;52.198;9.890;2023-01-09T07:42:25;11.30;;;6.27;;
20721;SDS011;10522;52.198;9.890;2023-01-09T07:44:51;14.67;;;5.70;;
20721;SDS011;10522;52.198;9.890;2023-01-09T07:47:16;14.30;;;7.07;;
20721;SDS011;10522;52.198;9.890;2023-01-09T07:49:42;12.63;;;6.43;;
20721;SDS011;10522;52.198;9.890;2023-01-09T07:52:08;9.53;;;6.30;;
20721;SDS011;10522;52.198;9.890;2023-01-09T07:54:33;8.17;;;5.50;;
20721;SDS011;10522;52.198;9.890;2023-01-09T07:56:59;10.33;;;5.97;;
20721;SDS011;10522;52.198;9.890;2023-01-09T07:59:24;14.53;;;5.60;;
20721;SDS011;10522;52.198;9.890;2023-01-09T08:01:51;11.23;;;5.07;;
20721;SDS011;10522;52.198;9.890;2023-01-09T08:04:17;7.50;;;5.00;;
20721;SDS011;10522;52.198;9.890;2023-01-09T08:06:43;14.30;;;6.47;;
20721;SDS011;10522;52.198;9.890;2023-01-09T08:09:08;13.73;;;6.23;;
20721;SDS011;10522;52.198;9.890;2023-01-09T08:11:34;7.67;;;4.77;;
20721;SDS011;10522;52.198;9.890;2023-01-09T08:14:00;8.07;;;5.00;;
20721;SDS011;10522;52.198;9.890;2023-01-09T08:16:25;7.43;;;4.87;;
20721;SDS011;10522;52.198;9.890;2023-01-09T08:18:51;10.17;;;5.27;;
20721;SDS011;10522;52.198;9.890;2023-01-09T08:21:16;6.63;;;4.93;;
20721;SDS011;10522;52.198;9.890;2023-01-09T08:23:42;11.93;;;5.30;;
20721;SDS011;10522;52.198;9.890;2023-01-09T08:26:09;5.87;;;4.17;;
20721;SDS011;10522;52.198;9.890;2023-01-09T08:28:35;6.80;;;4.27;;
20721;SDS011;10522;52.198;9.890;2023-01-09T08:31:00;5.80;;;3.67;;
20721;SDS011;10522;52.198;9.890;2023-01-09T08:33:26;4.63;;;3.40;;
20721;SDS011;10522;52.198;9.890;2023-01-09T08:35:53;7.07;;;3.33;;
20721;SDS011;10522;52.198;9.890;2023-01-09T08:38:18;4.97;;;3.33;;
20721;SDS011;10522;52.198;9.890;2023-01-09T08:40:46;5.17;;;3.77;;
20721;SDS011;10522;52.198;9.890;2023-01-09T08:43:12;6.40;;;3.07;;
20721;SDS011;10522;52.198;9.890;2023-01-09T08:45:56;2.47;;;2.17;;
20721;SDS011;10522;52.198;9.890;2023-01-09T08:48:41;8.17;;;2.37;;
20721;SDS011;10522;52.198;9.890;2023-01-09T08:51:07;5.47;;;1.80;;
20721;SDS011;10522;52.198;9.890;2023-01-09T08:53:33;6.90;;;2.33;;
20721;SDS011;10522;52.198;9.890;2023-01-09T08:55:59;5.13;;;2.20;;
20721;SDS011;10522;52.198;9.890;2023-01-09T08:58:25;1.80;;;1.40;;
20721;SDS011;10522;52.198;9.890;2023-01-09T09:00:50;5.20;;;2.37;;
20721;SDS011;10522;52.198;9.890;2023-01-09T09:03:16;7.07;;;1.80;;
20721;SDS011;10522;52.198;9.890;2023-01-09T09:05:42;2.70;;;1.80;;
20721;SDS011;10522;52.198;9.890;2023-01-09T09:08:07;3.60;;;1.90;;
20721;SDS011;10522;52.198;9.890;2023-01-09T09:10:33;3.67;;;1.60;;
20721;SDS011;10522;52.198;9.890;2023-01-09T09:12:59;6.30;;;1.97;;
20721;SDS011;10522;52.198;9.890;2023-01-09T09:15:28;3.17;;;1.60;;
20721;SDS011;10522;52.198;9.890;2023-01-09T09:17:59;3.60;;;1.40;;
20721;SDS011;10522;52.198;9.890;2023-01-09T09:20:28;4.13;;;1.50;;
20721;SDS011;10522;52.198;9.890;2023-01-09T09:22:56;8.87;;;1.47;;
20721;SDS011;10522;52.198;9.890;2023-01-09T09:25:22;3.83;;;1.80;;
20721;SDS011;10522;52.198;9.890;2023-01-09T09:27:48;5.17;;;1.53;;
20721;SDS011;10522;52.198;9.890;2023-01-09T09:30:15;4.23;;;1.20;;
20721;SDS011;10522;52.198;9.890;2023-01-09T09:32:42;3.80;;;1.77;;
20721;SDS011;10522;52.198;9.890;2023-01-09T09:35:08;6.77;;;1.60;;
20721;SDS011;10522;52.198;9.890;2023-01-09T09:37:34;4.27;;;1.57;;
20721;SDS011;10522;52.198;9.890;2023-01-09T09:40:00;5.87;;;1.47;;
20721;SDS011;10522;52.198;9.890;2023-01-09T09:48:36;3.53;;;1.17;;
20721;SDS011;10522;52.198;9.890;2023-01-09T09:53:47;2.87;;;1.33;;
20721;SDS011;10522;52.198;9.890;2023-01-09T09:56:24;3.70;;;1.17;;
20721;SDS011;10522;52.198;9.890;2023-01-09T09:59:01;3.03;;;1.20;;
20721;SDS011;10522;52.198;9.890;2023-01-09T10:01:39;4.17;;;1.10;;
20721;SDS011;10522;52.198;9.890;2023-01-09T10:04:29;4.10;;;1.20;;
20721;SDS011;10522;52.198;9.890;2023-01-09T10:07:04;2.93;;;1.37;;
20721;SDS011;10522;52.198;9.890;2023-01-09T10:12:29;2.97;;;1.10;;
20721;SDS011;10522;52.198;9.890;2023-01-09T10:15:18;4.10;;;1.43;;
20721;SDS011;10522;52.198;9.890;2023-01-09T10:21:01;4.20;;;1.33;;
20721;SDS011;10522;52.198;9.890;2023-01-09T10:26:24;1.87;;;1.00;;
20721;SDS011;10522;52.198;9.890;2023-01-09T10:32:07;1.63;;;0.93;;
20721;SDS011;10522;52.198;9.890;2023-01-09T10:37:44;3.47;;;1.10;;
20721;SDS011;10522;52.198;9.890;2023-01-09T10:42:52;2.73;;;0.97;;
20721;SDS011;10522;52.198;9.890;2023-01-09T10:47:56;4.97;;;1.00;;
20721;SDS011;10522;52.198;9.890;2023-01-09T10:50:28;2.63;;;1.00;;
20721;SDS011;10522;52.198;9.890;2023-01-09T10:52:57;2.93;;;0.70;;
20721;SDS011;10522;52.198;9.890;2023-01-09T10:55:29;3.17;;;0.87;;
20721;SDS011;10522;52.198;9.890;2023-01-09T10:58:15;1.23;;;0.70;;
20721;SDS011;10522;52.198;9.890;2023-01-09T11:00:43;2.27;;;1.00;;
20721;SDS011;10522;52.198;9.890;2023-01-09T11:03:13;2.57;;;1.00;;
20721;SDS011;10522;52.198;9.890;2023-01-09T11:05:40;3.93;;;1.00;;
20721;SDS011;10522;52.198;9.890;2023-01-09T11:08:12;1.57;;;0.90;;
20721;SDS011;10522;52.198;9.890;2023-01-09T11:10:57;4.87;;;0.90;;
20721;SDS011;10522;52.198;9.890;2023-01-09T11:13:25;3.57;;;1.00;;
20721;SDS011;10522;52.198;9.890;2023-01-09T11:16:19;3.27;;;0.80;;
20721;SDS011;10522;52.198;9.890;2023-01-09T11:18:52;1.83;;;0.80;;
20721;SDS011;10522;52.198;9.890;2023-01-09T11:23:52;1.27;;;0.77;;
20721;SDS011;10522;52.198;9.890;2023-01-09T11:26:22;1.27;;;0.57;;
20721;SDS011;10522;52.198;9.890;2023-01-09T11:34:19;3.33;;;1.20;;
20721;SDS011;10522;52.198;9.890;2023-01-09T11:36:47;0.67;;;0.50;;
20721;SDS011;10522;52.198;9.890;2023-01-09T11:41:51;1.00;;;0.60;;
20721;SDS011;10522;52.198;9.890;2023-01-09T11:44:19;3.87;;;1.07;;
20721;SDS011;10522;52.198;9.890;2023-01-09T11:46:46;5.00;;;1.77;;
20721;SDS011;10522;52.198;9.890;2023-01-09T11:51:41;1.80;;;0.70;;
20721;SDS011;10522;52.198;9.890;2023-01-09T11:54:27;2.43;;;1.00;;
20721;SDS011;10522;52.198;9.890;2023-01-09T11:56:55;1.47;;;0.80;;
20721;SDS011;10522;52.198;9.890;2023-01-09T11:59:25;1.60;;;0.67;;
20721;SDS011;10522;52.198;9.890;2023-01-09T12:04:30;2.33;;;1.07;;
20721;SDS011;10522;52.198;9.890;2023-01-09T12:07:22;5.13;;;1.20;;
20721;SDS011;10522;52.198;9.890;2023-01-09T12:12:51;3.97;;;1.00;;
20721;SDS011;10522;52.198;9.890;2023-01-09T12:18:19;3.07;;;0.80;;
20721;SDS011;10522;52.198;9.890;2023-01-09T12:26:12;2.77;;;0.80;;
20721;SDS011;10522;52.198;9.890;2023-01-09T12:31:18;2.57;;;0.83;;
20721;SDS011;10522;52.198;9.890;2023-01-09T12:37:12;2.07;;;0.60;;
20721;SDS011;10522;52.198;9.890;2023-01-09T12:40:01;2.80;;;0.90;;
20721;SDS011;10522;52.198;9.890;2023-01-09T12:47:52;1.50;;;0.60;;
20721;SDS011;10522;52.198;9.890;2023-01-09T12:53:28;0.70;;;0.70;;
20721;SDS011;10522;52.198;9.890;2023-01-09T12:56:03;1.43;;;0.60;;
20721;SDS011;10522;52.198;9.890;2023-01-09T13:01:06;2.80;;;0.70;;
20721;SDS011;10522;52.198;9.890;2023-01-09T13:04:20;3.80;;;0.40;;
20721;SDS011;10522;52.198;9.890;2023-01-09T13:06:33;0.70;;;0.50;;
20721;SDS011;10522;52.198;9.890;2023-01-09T13:11:39;1.27;;;0.73;;
20721;SDS011;10522;52.198;9.890;2023-01-09T13:17:10;1.60;;;0.50;;
20721;SDS011;10522;52.198;9.890;2023-01-09T13:19:42;1.60;;;0.60;;
20721;SDS011;10522;52.198;9.890;2023-01-09T13:22:10;2.30;;;0.60;;
20721;SDS011;10522;52.198;9.890;2023-01-09T13:27:30;2.23;;;0.77;;
20721;SDS011;10522;52.198;9.890;2023-01-09T13:33:08;1.50;;;0.73;;
20721;SDS011;10522;52.198;9.890;2023-01-09T13:35:52;1.27;;;0.57;;
20721;SDS011;10522;52.198;9.890;2023-01-09T13:38:21;1.50;;;0.60;;
20721;SDS011;10522;52.198;9.890;2023-01-09T13:41:22;0.93;;;0.50;;
20721;SDS011;10522;52.198;9.890;2023-01-09T13:46:51;0.77;;;0.67;;
20721;SDS011;10522;52.198;9.890;2023-01-09T13:49:31;2.17;;;0.53;;
20721;SDS011;10522;52.198;9.890;2023-01-09T13:52:04;1.33;;;0.60;;
20721;SDS011;10522;52.198;9.890;2023-01-09T14:07:37;1.70;;;0.70;;
20721;SDS011;10522;52.198;9.890;2023-01-09T14:10:17;1.37;;;1.00;;
20721;SDS011;10522;52.198;9.890;2023-01-09T14:12:49;3.13;;;0.70;;
20721;SDS011;10522;52.198;9.890;2023-01-09T14:15:23;3.50;;;0.90;;
20721;SDS011;10522;52.198;9.890;2023-01-09T14:17:57;1.60;;;0.80;;
20721;SDS011;10522;52.198;9.890;2023-01-09T14:20:29;3.03;;;0.80;;
20721;SDS011;10522;52.198;9.890;2023-01-09T14:23:02;2.93;;;0.90;;
20721;SDS011;10522;52.198;9.890;2023-01-09T14:25:28;4.37;;;0.83;;
20721;SDS011;10522;52.198;9.890;2023-01-09T14:38:28;2.27;;;0.73;;
20721;SDS011;10522;52.198;9.890;2023-01-09T14:44:07;5.00;;;1.13;;
20721;SDS011;10522;52.198;9.890;2023-01-09T14:47:13;1.00;;;0.60;;
20721;SDS011;10522;52.198;9.890;2023-01-09T14:52:51;1.40;;;0.77;;
20721;SDS011;10522;52.198;9.890;2023-01-09T14:55:28;2.67;;;0.97;;
20721;SDS011;10522;52.198;9.890;2023-01-09T14:58:08;2.13;;;1.10;;
20721;SDS011;10522;52.198;9.890;2023-01-09T15:00:44;2.13;;;1.13;;
20721;SDS011;10522;52.198;9.890;2023-01-09T15:03:15;3.40;;;1.43;;
20721;SDS011;10522;52.198;9.890;2023-01-09T15:05:41;3.67;;;1.10;;
20721;SDS011;10522;52.198;9.890;2023-01-09T15:08:10;1.03;;;0.80;;
20721;SDS011;10522;52.198;9.890;2023-01-09T15:10:43;1.53;;;0.90;;
20721;SDS011;10522;52.198;9.890;2023-01-09T15:13:15;2.07;;;1.10;;
20721;SDS011;10522;52.198;9.890;2023-01-09T15:15:53;1.67;;;1.07;;
20721;SDS011;10522;52.198;9.890;2023-01-09T15:18:20;0.77;;;0.70;;
20721;SDS011;10522;52.198;9.890;2023-01-09T15:20:57;0.70;;;0.60;;
20721;SDS011;10522;52.198;9.890;2023-01-09T15:23:25;0.47;;;0.47;;
20721;SDS011;10522;52.198;9.890;2023-01-09T15:25:55;1.03;;;0.73;;
20721;SDS011;10522;52.198;9.890;2023-01-09T15:28:38;1.30;;;0.80;;
20721;SDS011;10522;52.198;9.890;2023-01-09T15:31:10;2.10;;;0.80;;
20721;SDS011;10522;52.198;9.890;2023-01-09T15:33:41;0.87;;;0.87;;
20721;SDS011;10522;52.198;9.890;2023-01-09T15:36:14;0.80;;;0.80;;
20721;SDS011;10522;52.198;9.890;2023-01-09T15:38:52;2.27;;;0.90;;
20721;SDS011;10522;52.198;9.890;2023-01-09T15:41:28;0.70;;;0.70;;
20721;SDS011;10522;52.198;9.890;2023-01-09T15:44:17;0.97;;;0.80;;
20721;SDS011;10522;52.198;9.890;2023-01-09T15:46:46;1.30;;;1.20;;
20721;SDS011;10522;52.198;9.890;2023-01-09T15:49:14;2.27;;;1.13;;
20721;SDS011;10522;52.198;9.890;2023-01-09T15:51:42;1.53;;;1.03;;
20721;SDS011;10522;52.198;9.890;2023-01-09T15:54:13;1.47;;;1.10;;
20721;SDS011;10522;52.198;9.890;2023-01-09T15:56:41;1.00;;;0.90;;
20721;SDS011;10522;52.198;9.890;2023-01-09T15:59:42;1.60;;;1.23;;
20721;SDS011;10522;52.198;9.890;2023-01-09T16:02:02;1.10;;;1.07;;
20721;SDS011;10522;52.198;9.890;2023-01-09T16:04:56;1.20;;;1.10;;
20721;SDS011;10522;52.198;9.890;2023-01-09T16:07:21;1.47;;;1.00;;
20721;SDS011;10522;52.198;9.890;2023-01-09T16:09:48;2.53;;;1.00;;
20721;SDS011;10522;52.198;9.890;2023-01-09T16:12:17;2.13;;;1.43;;
20721;SDS011;10522;52.198;9.890;2023-01-09T16:14:52;2.83;;;1.30;;
20721;SDS011;10522;52.198;9.890;2023-01-09T16:17:20;4.87;;;1.60;;
20721;SDS011;10522;52.198;9.890;2023-01-09T16:19:57;3.70;;;1.43;;
20721;SDS011;10522;52.198;9.890;2023-01-09T16:22:36;2.83;;;1.37;;
20721;SDS011;10522;52.198;9.890;2023-01-09T16:25:27;4.03;;;2.00;;
20721;SDS011;10522;52.198;9.890;2023-01-09T16:30:32;1.83;;;1.67;;
20721;SDS011;10522;52.198;9.890;2023-01-09T16:32:58;2.10;;;1.50;;
20721;SDS011;10522;52.198;9.890;2023-01-09T16:35:26;2.37;;;1.73;;
20721;SDS011;10522;52.198;9.890;2023-01-09T16:37:52;4.77;;;2.40;;
20721;SDS011;10522;52.198;9.890;2023-01-09T16:42:50;2.53;;;2.20;;
20721;SDS011;10522;52.198;9.890;2023-01-09T16:45:40;3.83;;;2.20;;
20721;SDS011;10522;52.198;9.890;2023-01-09T16:50:37;4.67;;;2.70;;
20721;SDS011;10522;52.198;9.890;2023-01-09T16:53:14;6.03;;;3.17;;
20721;SDS011;10522;52.198;9.890;2023-01-09T16:55:48;8.67;;;3.63;;
20721;SDS011;10522;52.198;9.890;2023-01-09T16:58:15;4.00;;;3.60;;
20721;SDS011;10522;52.198;9.890;2023-01-09T17:00:47;6.00;;;3.30;;
20721;SDS011;10522;52.198;9.890;2023-01-09T17:03:13;4.23;;;3.20;;
20721;SDS011;10522;52.198;9.890;2023-01-09T17:05:39;6.00;;;4.40;;
20721;SDS011;10522;52.198;9.890;2023-01-09T17:08:25;6.67;;;4.53;;
20721;SDS011;10522;52.198;9.890;2023-01-09T17:11:01;7.10;;;4.67;;
20721;SDS011;10522;52.198;9.890;2023-01-09T17:13:28;8.07;;;4.83;;
20721;SDS011;10522;52.198;9.890;2023-01-09T17:15:54;8.83;;;5.57;;
20721;SDS011;10522;52.198;9.890;2023-01-09T17:18:23;8.97;;;5.60;;
20721;SDS011;10522;52.198;9.890;2023-01-09T17:20:50;10.20;;;6.07;;
20721;SDS011;10522;52.198;9.890;2023-01-09T17:23:17;9.27;;;6.00;;
20721;SDS011;10522;52.198;9.890;2023-01-09T17:25:47;10.60;;;6.13;;
20721;SDS011;10522;52.198;9.890;2023-01-09T17:28:32;9.43;;;5.80;;
20721;SDS011;10522;52.198;9.890;2023-01-09T17:30:59;11.67;;;6.10;;
20721;SDS011;10522;52.198;9.890;2023-01-09T17:33:33;8.40;;;4.83;;